Time;durP1;ratioP1;P1;durP2;ratioP2;P2;SDS_P1;SDS_P2;PMS_P1;PMS_P2;Temp;Humidity;BMP_temperature;BMP_pressure;BME280_temperature;BME280_humidity;BME280_pressure;Samples;Min_cycle;Max_cycle;Signal;HPM_P1;HPM_P2
2021/06/29 00:02:09;;;;;;;56.80;33.63;;;21.40;99.90;;;;;;4993727;28;20272;-80
2021/06/29 00:04:35;;;;;;;57.97;34.47;;;21.40;99.90;;;;;;4992652;28;20189;-79
2021/06/29 00:07:00;;;;;;;58.30;35.15;;;21.40;99.90;;;;;;4990424;28;20197;-80
2021/06/29 00:09:26;;;;;;;53.15;33.75;;;21.50;99.90;;;;;;4974945;28;20185;-78
2021/06/29 00:11:52;;;;;;;54.67;33.60;;;21.60;99.90;;;;;;4974618;28;20702;-78
2021/06/29 00:14:21;;;;;;;56.28;34.60;;;21.50;99.90;;;;;;4974565;28;20162;-79
2021/06/29 00:16:46;;;;;;;54.50;33.08;;;21.30;99.90;;;;;;4973656;28;20593;-79
2021/06/29 00:19:12;;;;;;;62.80;35.38;;;21.40;99.90;;;;;;4975372;28;20236;-79
2021/06/29 00:21:38;;;;;;;61.17;35.40;;;21.50;99.90;;;;;;4977071;28;20170;-79
2021/06/29 00:24:04;;;;;;;58.13;34.05;;;21.60;99.90;;;;;;4994121;28;20174;-80
2021/06/29 00:26:29;;;;;;;60.35;36.03;;;21.60;99.90;;;;;;4992371;28;20554;-81
2021/06/29 00:28:57;;;;;;;58.58;34.50;;;21.50;99.90;;;;;;4996418;28;20181;-79
2021/06/29 00:31:23;;;;;;;56.95;33.40;;;21.70;99.90;;;;;;4990011;28;20165;-78
2021/06/29 00:33:50;;;;;;;59.58;35.47;;;21.70;99.90;;;;;;4993603;28;20190;-79
2021/06/29 00:36:16;;;;;;;57.17;35.00;;;21.60;99.90;;;;;;4996102;28;20188;-79
2021/06/29 00:38:42;;;;;;;63.78;35.28;;;21.70;99.90;;;;;;4995528;28;20154;-79
2021/06/29 00:41:08;;;;;;;59.78;35.17;;;21.40;99.90;;;;;;4998238;28;20174;-79
2021/06/29 00:43:34;;;;;;;56.38;33.90;;;21.20;99.90;;;;;;5001387;28;20189;-79
2021/06/29 00:46:00;;;;;;;58.72;36.05;;;21.20;99.90;;;;;;4995761;28;20158;-79
2021/06/29 00:48:25;;;;;;;58.03;35.00;;;21.40;99.90;;;;;;4996501;28;20166;-79
2021/06/29 00:50:51;;;;;;;56.55;34.88;;;21.40;99.90;;;;;;4997679;28;20642;-78
2021/06/29 00:53:17;;;;;;;56.38;34.47;;;21.30;99.90;;;;;;4994873;28;20229;-79
2021/06/29 00:55:43;;;;;;;66.15;38.45;;;21.10;99.90;;;;;;4979385;28;20165;-79
2021/06/29 00:58:10;;;;;;;63.35;37.42;;;21.00;99.90;;;;;;4977539;28;20173;-79
2021/06/29 01:00:38;;;;;;;70.10;37.50;;;21.00;99.90;;;;;;4996697;28;20214;-79
2021/06/29 01:03:04;;;;;;;67.05;38.40;;;21.00;99.90;;;;;;4985461;28;20198;-79
2021/06/29 01:05:30;;;;;;;61.05;36.85;;;21.10;99.90;;;;;;4977612;28;20197;-79
2021/06/29 01:07:55;;;;;;;62.50;37.05;;;21.20;99.90;;;;;;4983534;28;20250;-80
2021/06/29 01:10:22;;;;;;;63.92;38.13;;;21.10;99.90;;;;;;4994157;28;20165;-80
2021/06/29 01:12:48;;;;;;;63.78;37.40;;;21.10;99.90;;;;;;4997120;28;20182;-81
2021/06/29 01:15:14;;;;;;;58.90;37.20;;;21.10;99.90;;;;;;4992730;28;20182;-79
2021/06/29 01:17:40;;;;;;;69.85;39.22;;;21.00;99.90;;;;;;4993662;28;20297;-78
2021/06/29 01:20:14;;;;;;;66.05;37.88;;;20.90;99.90;;;;;;4993371;28;20229;-79
2021/06/29 01:22:40;;;;;;;61.67;36.78;;;20.80;99.90;;;;;;4995816;28;20189;-79
2021/06/29 01:25:09;;;;;;;65.20;38.92;;;20.80;99.90;;;;;;4995258;28;20174;-79
2021/06/29 01:32:38;;;;;;;69.50;40.40;;;20.80;99.90;;;;;;4998590;28;20257;-80
2021/06/29 01:35:06;;;;;;;75.47;42.35;;;20.70;99.90;;;;;;4997569;28;20161;-80
2021/06/29 01:37:32;;;;;;;74.20;42.85;;;20.70;99.90;;;;;;4998089;28;20177;-79
2021/06/29 01:40:09;;;;;;;84.07;44.22;;;20.80;99.90;;;;;;4997459;28;20213;-78
2021/06/29 01:42:34;;;;;;;75.38;44.08;;;20.90;99.90;;;;;;4996960;28;20216;-79
2021/06/29 01:45:00;;;;;;;76.28;42.92;;;20.80;99.90;;;;;;4996855;28;20162;-78
2021/06/29 01:47:38;;;;;;;72.95;42.53;;;20.90;99.90;;;;;;4996323;28;20186;-78
2021/06/29 01:50:17;;;;;;;75.53;42.15;;;20.90;99.90;;;;;;4996611;28;20166;-79
2021/06/29 01:52:43;;;;;;;80.70;44.17;;;20.90;99.90;;;;;;4998097;28;20174;-80
2021/06/29 01:55:10;;;;;;;73.30;42.85;;;21.00;99.90;;;;;;4995604;28;20193;-78
2021/06/29 01:57:38;;;;;;;71.50;39.75;;;21.10;99.90;;;;;;4991137;28;20174;-79
2021/06/29 02:00:07;;;;;;;71.05;37.33;;;21.10;99.90;;;;;;4976334;28;20569;-78
2021/06/29 02:02:33;;;;;;;59.58;34.33;;;20.90;99.90;;;;;;4976349;28;20268;-79
2021/06/29 02:04:59;;;;;;;43.90;28.77;;;20.70;99.90;;;;;;4976481;28;20213;-78
2021/06/29 02:07:25;;;;;;;43.78;27.75;;;20.50;99.90;;;;;;4976854;28;20539;-79
2021/06/29 02:09:50;;;;;;;43.53;26.08;;;20.60;99.90;;;;;;4975129;28;20173;-78
2021/06/29 02:12:16;;;;;;;37.40;22.40;;;20.50;99.90;;;;;;4991462;28;20276;-77
2021/06/29 02:14:42;;;;;;;27.88;18.67;;;20.60;99.90;;;;;;4988522;28;20150;-79
2021/06/29 02:17:07;;;;;;;26.92;17.92;;;20.50;99.90;;;;;;4996490;28;20241;-79
2021/06/29 02:19:33;;;;;;;23.83;15.38;;;20.50;99.90;;;;;;5013119;28;20249;-79
2021/06/29 02:21:59;;;;;;;23.58;15.02;;;20.60;99.90;;;;;;4995413;28;20241;-82
2021/06/29 02:24:25;;;;;;;20.13;14.48;;;20.50;99.90;;;;;;4998839;28;20190;-79
2021/06/29 02:26:50;;;;;;;18.73;13.27;;;20.50;99.90;;;;;;4998095;28;20242;-78
2021/06/29 02:29:16;;;;;;;17.02;12.27;;;20.60;99.90;;;;;;4998929;28;20182;-80
2021/06/29 02:31:41;;;;;;;12.00;9.40;;;20.50;99.90;;;;;;4995779;28;20166;-79
2021/06/29 02:34:07;;;;;;;9.57;8.55;;;20.50;99.90;;;;;;4995807;28;20280;-79
2021/06/29 02:36:33;;;;;;;10.88;7.70;;;20.40;99.90;;;;;;4996711;28;20182;-78
2021/06/29 02:39:01;;;;;;;9.55;8.05;;;20.40;99.90;;;;;;4997651;28;20205;-78
2021/06/29 02:41:26;;;;;;;9.82;7.65;;;20.30;99.90;;;;;;4996107;28;20582;-79
2021/06/29 02:43:52;;;;;;;9.50;7.60;;;20.30;99.90;;;;;;4998728;28;20194;-79
2021/06/29 02:46:18;;;;;;;11.27;8.75;;;20.20;99.90;;;;;;4993003;28;20189;-78
2021/06/29 02:48:43;;;;;;;8.93;7.43;;;20.20;99.90;;;;;;4978866;28;20531;-78
2021/06/29 02:51:09;;;;;;;9.80;6.72;;;20.20;99.90;;;;;;4975965;28;20197;-77
2021/06/29 02:53:35;;;;;;;7.45;6.22;;;20.10;99.90;;;;;;4975502;28;20682;-78
2021/06/29 02:56:00;;;;;;;6.50;5.13;;;20.20;99.90;;;;;;4974723;28;20687;-78
2021/06/29 02:58:26;;;;;;;6.13;5.15;;;20.20;99.90;;;;;;4975280;28;20185;-78
2021/06/29 03:00:51;;;;;;;7.13;6.22;;;20.10;99.90;;;;;;4979503;28;20205;-80
2021/06/29 03:03:17;;;;;;;9.38;5.93;;;20.20;99.90;;;;;;4991577;28;20186;-79
2021/06/29 03:05:43;;;;;;;6.80;6.10;;;20.20;99.90;;;;;;4991427;28;20213;-79
2021/06/29 03:08:09;;;;;;;7.70;5.80;;;20.40;99.90;;;;;;4997308;28;20181;-80
2021/06/29 03:10:38;;;;;;;6.35;5.80;;;20.20;99.90;;;;;;4995635;28;20169;-81
2021/06/29 03:13:03;;;;;;;7.53;5.25;;;20.10;99.90;;;;;;4994152;28;20180;-81
2021/06/29 03:15:29;;;;;;;7.45;5.65;;;20.10;99.90;;;;;;4997428;28;20162;-80
2021/06/29 03:17:55;;;;;;;5.15;4.75;;;20.20;99.90;;;;;;4993393;28;20188;-79
2021/06/29 03:20:21;;;;;;;6.03;5.53;;;20.20;99.90;;;;;;4993758;28;20256;-79
2021/06/29 03:22:47;;;;;;;7.63;5.78;;;20.20;99.90;;;;;;4991595;28;20257;-80
2021/06/29 03:25:13;;;;;;;7.38;5.13;;;19.90;99.90;;;;;;4985448;28;20170;-80
2021/06/29 03:27:40;;;;;;;6.53;5.10;;;19.90;99.90;;;;;;4991749;28;20166;-80
2021/06/29 03:30:07;;;;;;;5.53;5.00;;;19.80;99.90;;;;;;4993605;28;20158;-80
2021/06/29 03:32:36;;;;;;;6.55;4.03;;;19.80;99.90;;;;;;4988549;28;20193;-79
2021/06/29 03:35:07;;;;;;;5.43;4.32;;;19.60;99.90;;;;;;4990141;28;20166;-80
2021/06/29 03:37:33;;;;;;;6.28;3.83;;;19.60;99.90;;;;;;4993861;28;20146;-80
2021/06/29 03:39:58;;;;;;;5.53;4.57;;;19.60;99.90;;;;;;4991244;28;20274;-80
2021/06/29 03:42:24;;;;;;;6.78;4.40;;;19.60;99.90;;;;;;4995816;28;20182;-79
2021/06/29 03:44:50;;;;;;;4.90;3.80;;;19.60;99.90;;;;;;5009466;28;20189;-80
2021/06/29 03:47:15;;;;;;;4.88;2.92;;;19.50;99.90;;;;;;4990195;28;20173;-82
2021/06/29 03:49:41;;;;;;;2.65;2.45;;;19.50;99.90;;;;;;4995241;28;20162;-80
2021/06/29 03:52:06;;;;;;;8.00;2.30;;;19.50;99.90;;;;;;4982002;28;20182;-81
2021/06/29 03:54:32;;;;;;;2.38;1.70;;;19.70;99.90;;;;;;4984830;28;20192;-80
2021/06/29 03:56:58;;;;;;;1.60;1.50;;;19.70;99.90;;;;;;5002598;28;20201;-79
2021/06/29 03:59:23;;;;;;;1.85;1.70;;;19.80;99.90;;;;;;4982979;28;20674;-79
2021/06/29 04:01:49;;;;;;;3.40;1.70;;;19.60;99.90;;;;;;4984869;28;20172;-80
2021/06/29 04:04:15;;;;;;;3.35;1.50;;;19.50;99.90;;;;;;4981533;28;20197;-80
2021/06/29 04:06:40;;;;;;;4.72;1.63;;;19.60;99.90;;;;;;4978934;28;20178;-80
2021/06/29 04:09:08;;;;;;;1.17;1.05;;;19.70;99.90;;;;;;4980003;28;20183;-80
2021/06/29 04:11:35;;;;;;;2.85;1.77;;;19.90;99.90;;;;;;4979776;28;20174;-80
2021/06/29 04:14:00;;;;;;;1.75;1.20;;;19.90;99.90;;;;;;4978894;28;20220;-81
2021/06/29 04:16:26;;;;;;;1.42;1.30;;;20.10;99.90;;;;;;4995904;28;20543;-81
2021/06/29 04:18:52;;;;;;;1.58;1.40;;;20.10;99.90;;;;;;4980852;28;20201;-80
2021/06/29 04:21:18;;;;;;;3.03;2.20;;;19.80;99.90;;;;;;4984157;28;20174;-80
2021/06/29 04:23:44;;;;;;;7.50;3.20;;;19.80;99.90;;;;;;4982485;28;20185;-79
2021/06/29 04:26:12;;;;;;;5.25;3.85;;;19.80;99.90;;;;;;4982459;28;20165;-81
2021/06/29 04:28:38;;;;;;;8.23;4.78;;;19.90;99.90;;;;;;4980877;28;20575;-79
2021/06/29 04:31:04;;;;;;;6.43;5.03;;;19.90;99.90;;;;;;4982058;28;20173;-79
2021/06/29 04:33:29;;;;;;;11.50;7.72;;;19.80;99.90;;;;;;4982132;28;20186;-79
2021/06/29 04:35:55;;;;;;;14.88;8.25;;;19.60;99.90;;;;;;4982385;28;20159;-79
2021/06/29 04:38:21;;;;;;;11.32;9.38;;;19.60;99.90;;;;;;4981291;28;20158;-79
2021/06/29 04:40:46;;;;;;;14.93;10.00;;;19.70;99.90;;;;;;4980313;28;20591;-80
2021/06/29 04:43:12;;;;;;;14.30;8.15;;;19.70;99.90;;;;;;4980002;28;20213;-80
2021/06/29 04:45:38;;;;;;;9.27;7.70;;;19.40;99.90;;;;;;4979479;28;20166;-79
2021/06/29 04:48:04;;;;;;;8.23;7.40;;;19.50;99.90;;;;;;4995310;28;20177;-79
2021/06/29 04:50:30;;;;;;;9.82;6.57;;;19.40;99.90;;;;;;4996093;28;20178;-79
2021/06/29 04:52:55;;;;;;;6.78;5.40;;;19.40;99.90;;;;;;4979870;28;20305;-80
2021/06/29 04:55:21;;;;;;;5.07;4.57;;;19.50;99.90;;;;;;4980104;28;20166;-80
2021/06/29 04:57:47;;;;;;;6.03;5.00;;;19.50;99.90;;;;;;4977132;28;20645;-80
2021/06/29 05:00:17;;;;;;;15.32;4.60;;;19.50;99.90;;;;;;4973075;28;20612;-82
2021/06/29 05:02:43;;;;;;;5.47;4.72;;;19.60;99.90;;;;;;4973026;28;20586;-80
2021/06/29 05:05:10;;;;;;;9.02;3.58;;;19.30;99.90;;;;;;4973258;28;20169;-80
2021/06/29 05:07:40;;;;;;;6.22;3.72;;;19.30;99.90;;;;;;4972811;28;20261;-80
2021/06/29 05:10:10;;;;;;;6.68;2.97;;;19.30;99.90;;;;;;5016115;23;20237;-81
2021/06/29 05:12:37;;;;;;;5.43;3.42;;;19.40;99.90;;;;;;5012522;28;20272;-81
2021/06/29 05:15:04;;;;;;;11.05;3.63;;;19.60;99.90;;;;;;5027576;28;20164;-82
2021/06/29 05:17:30;;;;;;;4.80;3.05;;;19.50;99.90;;;;;;5011798;28;20299;-81
2021/06/29 05:19:55;;;;;;;8.43;3.13;;;19.60;99.90;;;;;;5016775;28;20271;-82
2021/06/29 05:22:21;;;;;;;5.32;2.42;;;19.60;99.90;;;;;;5014871;28;20701;-82
2021/06/29 05:24:46;;;;;;;8.15;2.47;;;19.60;99.90;;;;;;5016043;28;20172;-83
2021/06/29 05:27:12;;;;;;;8.65;2.28;;;19.80;99.90;;;;;;5031904;28;20161;-81
2021/06/29 05:29:38;;;;;;;4.03;3.03;;;19.90;99.90;;;;;;5015338;28;20600;-82
2021/06/29 05:32:04;;;;;;;4.05;2.70;;;19.70;99.90;;;;;;5031025;28;20172;-83
2021/06/29 05:34:29;;;;;;;2.63;2.33;;;19.70;99.90;;;;;;5015904;28;20200;-82
2021/06/29 05:36:55;;;;;;;3.55;2.67;;;19.80;99.90;;;;;;5015893;28;20230;-82
2021/06/29 05:39:21;;;;;;;3.58;2.72;;;20.10;99.90;;;;;;5014740;28;20246;-89
2021/06/29 05:41:46;;;;;;;6.18;2.50;;;20.20;99.90;;;;;;5016107;28;20177;-82
2021/06/29 05:44:12;;;;;;;5.72;2.13;;;20.00;99.90;;;;;;5018459;28;20197;-82
2021/06/29 05:46:40;;;;;;;9.75;2.58;;;20.10;99.90;;;;;;5030158;28;20171;-82
2021/06/29 05:49:10;;;;;;;4.63;2.00;;;20.30;99.90;;;;;;5054575;28;20157;-86
2021/06/29 05:51:36;;;;;;;5.63;2.22;;;20.30;99.90;;;;;;5055889;28;20188;-84
2021/06/29 05:54:01;;;;;;;10.70;2.65;;;20.40;99.90;;;;;;5036769;28;20211;-83
2021/06/29 05:56:27;;;;;;;3.20;1.70;;;20.40;99.90;;;;;;5038009;28;20689;-82
2021/06/29 05:58:53;;;;;;;6.95;1.90;;;20.50;99.90;;;;;;5015124;28;20575;-83
2021/06/29 06:01:18;;;;;;;11.82;2.50;;;20.40;99.90;;;;;;5030326;28;20643;-82
2021/06/29 06:03:44;;;;;;;3.90;2.20;;;20.60;99.90;;;;;;5030084;28;20525;-82
2021/06/29 06:06:09;;;;;;;11.32;1.92;;;20.80;99.90;;;;;;5015053;28;20259;-83
2021/06/29 06:08:35;;;;;;;7.18;2.22;;;21.20;99.90;;;;;;5030359;28;20542;-82
2021/06/29 06:11:01;;;;;;;3.45;2.17;;;21.60;99.90;;;;;;5015340;28;20173;-85
2021/06/29 06:13:26;;;;;;;3.58;1.70;;;22.00;99.90;;;;;;5016174;28;20212;-83
2021/06/29 06:15:53;;;;;;;4.90;2.00;;;21.70;99.90;;;;;;5030127;28;20569;-83
2021/06/29 06:18:19;;;;;;;4.57;2.67;;;21.40;99.90;;;;;;5013056;28;20183;-81
2021/06/29 06:20:45;;;;;;;2.70;2.50;;;21.20;99.90;;;;;;5013376;28;20224;-81
2021/06/29 06:23:12;;;;;;;3.22;2.38;;;21.20;99.90;;;;;;5014038;28;20180;-81
2021/06/29 06:25:38;;;;;;;2.95;2.15;;;21.00;99.90;;;;;;5028929;28;20599;-81
2021/06/29 06:28:05;;;;;;;26.83;4.72;;;21.20;99.90;;;;;;5014367;28;20157;-81
2021/06/29 06:30:31;;;;;;;7.90;2.85;;;21.80;99.90;;;;;;5012342;28;20204;-82
2021/06/29 06:32:56;;;;;;;20.10;2.95;;;22.20;99.90;;;;;;5014112;28;20684;-81
2021/06/29 06:35:22;;;;;;;4.55;2.72;;;22.50;99.90;;;;;;5013947;28;20208;-81
2021/06/29 06:37:48;;;;;;;7.10;2.35;;;22.60;99.90;;;;;;5012973;28;20222;-80
2021/06/29 06:40:14;;;;;;;4.95;2.40;;;22.60;99.90;;;;;;5013838;28;20244;-82
2021/06/29 06:42:40;;;;;;;6.40;2.60;;;22.80;99.90;;;;;;5013850;28;20235;-83
2021/06/29 06:45:08;;;;;;;13.38;3.08;;;22.70;99.90;;;;;;5015219;28;20168;-83
2021/06/29 06:47:34;;;;;;;5.85;2.40;;;22.80;99.90;;;;;;5015937;28;20172;-83
2021/06/29 06:50:00;;;;;;;3.08;2.78;;;22.80;99.90;;;;;;5013471;28;20246;-83
2021/06/29 06:52:26;;;;;;;6.43;2.47;;;22.80;99.90;;;;;;5013429;28;20254;-89
2021/06/29 06:54:52;;;;;;;5.30;2.58;;;22.70;99.90;;;;;;5014536;28;20215;-83
2021/06/29 06:57:17;;;;;;;3.72;2.33;;;22.80;99.90;;;;;;5014406;28;20190;-82
2021/06/29 06:59:43;;;;;;;8.48;2.92;;;23.00;99.90;;;;;;5013821;28;20219;-82
2021/06/29 07:02:09;;;;;;;3.97;2.30;;;22.60;99.90;;;;;;5013976;28;20169;-83
2021/06/29 07:04:35;;;;;;;3.13;2.83;;;22.80;99.90;;;;;;5012546;28;20548;-82
2021/06/29 07:07:02;;;;;;;4.57;2.67;;;22.40;99.90;;;;;;5014074;28;20175;-82
2021/06/29 07:09:28;;;;;;;3.15;2.90;;;22.30;99.90;;;;;;5013490;28;20192;-82
2021/06/29 07:11:53;;;;;;;3.28;2.95;;;22.70;99.90;;;;;;5014053;28;20502;-83
2021/06/29 07:14:19;;;;;;;3.58;3.28;;;22.60;99.90;;;;;;5029665;28;20218;-84
2021/06/29 07:16:45;;;;;;;9.40;2.95;;;22.60;99.90;;;;;;5029711;28;20655;-84
2021/06/29 07:19:12;;;;;;;17.83;3.20;;;22.50;99.90;;;;;;5030453;28;20279;-85
2021/06/29 07:21:38;;;;;;;5.15;2.95;;;22.60;99.90;;;;;;5012611;28;20534;-83
2021/06/29 07:24:04;;;;;;;5.55;2.90;;;22.50;99.90;;;;;;5029540;28;20199;-81
2021/06/29 07:26:30;;;;;;;4.00;3.63;;;22.70;99.90;;;;;;5014502;28;20176;-90
2021/06/29 07:28:56;;;;;;;10.23;3.53;;;22.60;99.90;;;;;;5013135;28;20172;-86
2021/06/29 07:31:22;;;;;;;6.50;3.70;;;22.60;99.90;;;;;;5026289;28;20169;-83
2021/06/29 07:33:49;;;;;;;5.13;3.63;;;22.40;99.90;;;;;;5021032;28;20245;-83
2021/06/29 07:36:16;;;;;;;3.42;3.13;;;22.40;99.90;;;;;;5034566;28;20184;-83
2021/06/29 07:38:45;;;;;;;34.70;5.30;;;22.50;99.90;;;;;;5030241;28;20184;-87
2021/06/29 07:41:13;;;;;;;6.28;3.85;;;22.20;99.90;;;;;;5035894;28;20195;-94
2021/06/29 07:43:38;;;;;;;8.38;4.53;;;22.40;99.90;;;;;;5036919;28;20196;-93
2021/06/29 07:46:04;;;;;;;8.85;4.13;;;22.30;99.90;;;;;;5036264;28;20199;-89
2021/06/29 07:48:30;;;;;;;4.22;3.80;;;22.20;99.90;;;;;;5035839;28;20204;-88
2021/06/29 07:50:56;;;;;;;4.07;3.78;;;22.30;99.90;;;;;;5036988;28;20172;-88
2021/06/29 07:53:28;;;;;;;6.75;3.83;;;22.50;99.90;;;;;;5023253;28;20207;-82
2021/06/29 07:55:53;;;;;;;5.93;4.00;;;22.10;99.90;;;;;;5023514;28;20194;-92
2021/06/29 07:58:19;;;;;;;9.48;3.63;;;22.20;99.90;;;;;;5014876;28;20260;-94
2021/06/29 08:00:46;;;;;;;9.02;3.78;;;22.40;99.90;;;;;;5001905;28;20208;-89
2021/06/29 08:03:11;;;;;;;13.57;5.35;;;22.60;99.90;;;;;;5013636;28;20314;-93
2021/06/29 08:05:37;;;;;;;25.80;4.88;;;22.90;99.90;;;;;;5014601;28;20255;-92
2021/06/29 08:08:07;;;;;;;33.03;6.95;;;23.30;99.90;;;;;;5013758;28;20165;-91
2021/06/29 08:10:33;;;;;;;7.60;5.15;;;23.50;99.90;;;;;;5015058;28;20203;-93
2021/06/29 08:12:59;;;;;;;11.05;4.05;;;23.80;99.90;;;;;;5030840;28;20223;-93
2021/06/29 08:15:26;;;;;;;10.90;5.10;;;23.90;99.90;;;;;;5014461;28;20559;-92
2021/06/29 08:17:52;;;;;;;10.13;4.90;;;23.60;99.90;;;;;;5029500;28;20203;-90
2021/06/29 08:20:18;;;;;;;13.40;4.93;;;23.40;99.90;;;;;;5015199;28;20208;-84
2021/06/29 08:22:50;;;;;;;6.97;4.43;;;23.20;99.90;;;;;;5023326;28;20191;-85
2021/06/29 08:25:20;;;;;;;8.88;5.15;;;23.10;99.90;;;;;;5021960;28;20196;-88
2021/06/29 08:27:46;;;;;;;8.07;4.85;;;23.40;99.90;;;;;;5021923;28;20628;-87
2021/06/29 08:30:12;;;;;;;11.27;4.63;;;23.00;99.90;;;;;;5036355;28;20211;-87
2021/06/29 08:32:38;;;;;;;30.33;6.20;;;23.30;99.90;;;;;;5036506;28;20219;-89
2021/06/29 08:35:08;;;;;;;15.30;5.40;;;23.30;99.90;;;;;;5036399;28;20165;-84
2021/06/29 08:37:35;;;;;;;5.07;4.57;;;23.50;99.90;;;;;;5015092;28;20177;-86
2021/06/29 08:40:03;;;;;;;13.00;4.75;;;23.20;99.90;;;;;;4999165;28;20208;-96
2021/06/29 08:42:33;;;;;;;5.22;4.72;;;22.90;99.90;;;;;;5013990;28;20197;-91
2021/06/29 08:45:03;;;;;;;8.68;5.07;;;23.10;99.90;;;;;;5032218;28;20292;-91
2021/06/29 08:47:29;;;;;;;10.10;4.80;;;23.20;99.90;;;;;;5019353;28;20177;-93
2021/06/29 08:49:55;;;;;;;15.77;6.22;;;23.40;99.90;;;;;;5021221;28;20164;-88
2021/06/29 08:52:21;;;;;;;8.70;5.10;;;23.60;99.90;;;;;;5026837;28;20223;-86
2021/06/29 08:54:49;;;;;;;7.78;4.70;;;23.30;99.90;;;;;;5049936;28;20207;-93
2021/06/29 08:57:17;;;;;;;6.28;4.38;;;23.50;99.90;;;;;;5045988;28;20172;-92
2021/06/29 08:59:43;;;;;;;8.55;4.57;;;23.80;99.90;;;;;;5022848;28;20212;-89
2021/06/29 09:02:09;;;;;;;6.50;4.18;;;24.20;99.90;;;;;;5017624;28;20267;-87
2021/06/29 09:04:49;;;;;;;4.93;4.25;;;24.50;99.90;;;;;;5033458;28;20205;-85
2021/06/29 09:07:19;;;;;;;12.75;4.32;;;24.60;99.90;;;;;;5018782;28;20175;-90
2021/06/29 09:10:04;;;;;;;8.98;4.18;;;24.70;99.90;;;;;;5032199;28;20665;-85
2021/06/29 09:12:47;;;;;;;7.53;3.97;;;24.30;99.90;;;;;;5030804;28;20206;-89
2021/06/29 09:15:32;;;;;;;5.05;4.43;;;24.60;99.90;;;;;;5031897;28;20187;-89
2021/06/29 09:18:13;;;;;;;7.75;5.45;;;24.90;99.90;;;;;;5015181;28;20178;-89
2021/06/29 09:20:40;;;;;;;16.80;4.75;;;24.80;99.90;;;;;;5014066;28;20267;-90
2021/06/29 09:23:15;;;;;;;14.50;4.68;;;24.90;99.90;;;;;;5014105;28;20209;-89
2021/06/29 09:26:05;;;;;;;13.90;4.30;;;25.30;99.90;;;;;;5030390;28;20202;-87
2021/06/29 09:28:53;;;;;;;4.38;4.07;;;25.10;99.90;;;;;;5013236;28;20900;-90
2021/06/29 09:31:26;;;;;;;5.47;4.55;;;24.90;99.90;;;;;;5012779;28;20172;-90
2021/06/29 09:33:55;;;;;;;12.82;4.07;;;25.00;99.90;;;;;;5009170;28;20224;-86
2021/06/29 09:36:26;;;;;;;5.72;4.30;;;25.00;99.90;;;;;;5013661;28;20185;-85
2021/06/29 09:38:56;;;;;;;4.82;4.20;;;25.30;99.90;;;;;;5016487;28;20552;-85
2021/06/29 09:41:30;;;;;;;8.65;4.50;;;25.70;99.90;;;;;;4998786;28;20664;-86
2021/06/29 09:44:19;;;;;;;9.55;5.55;;;25.90;99.90;;;;;;5016147;28;20196;-88
2021/06/29 09:46:45;;;;;;;14.05;4.93;;;26.10;99.90;;;;;;5015413;28;20173;-87
2021/06/29 09:49:14;;;;;;;12.00;5.20;;;25.60;99.90;;;;;;5018233;28;20208;-91
2021/06/29 09:51:47;;;;;;;6.18;4.63;;;25.50;99.90;;;;;;5016500;28;20621;-90
2021/06/29 09:54:14;;;;;;;11.77;4.32;;;25.50;99.90;;;;;;5014769;28;20234;-89
2021/06/29 09:56:43;;;;;;;5.40;4.68;;;25.60;99.90;;;;;;5031308;28;20203;-89
2021/06/29 09:59:26;;;;;;;5.30;4.82;;;25.70;99.90;;;;;;5030342;28;20192;-86
2021/06/29 10:02:11;;;;;;;13.45;5.50;;;25.50;99.90;;;;;;5028620;28;20183;-86
2021/06/29 10:04:38;;;;;;;5.10;4.60;;;25.30;99.90;;;;;;5013171;28;20315;-85
2021/06/29 10:07:14;;;;;;;8.18;5.13;;;25.70;99.90;;;;;;5013957;28;20168;-85
2021/06/29 10:09:40;;;;;;;6.05;4.13;;;26.00;99.90;;;;;;4983571;28;1140999;-86
2021/06/29 10:12:06;;;;;;;12.25;4.40;;;26.00;99.90;;;;;;5013951;28;20687;-87
2021/06/29 10:14:34;;;;;;;14.10;6.75;;;25.90;99.90;;;;;;5036473;28;20172;-85
2021/06/29 10:17:00;;;;;;;8.55;6.97;;;25.70;99.90;;;;;;5030616;28;20180;-84
2021/06/29 10:22:01;;;;;;;5.15;4.68;;;25.60;99.90;;;;;;5018247;28;20173;-83
2021/06/29 10:24:29;;;;;;;10.52;5.38;;;25.70;99.90;;;;;;5014440;28;20259;-84
2021/06/29 10:26:58;;;;;;;14.98;5.72;;;26.00;99.90;;;;;;5029269;28;20180;-89
2021/06/29 10:29:31;;;;;;;6.28;5.35;;;26.20;99.90;;;;;;5014903;28;20176;-85
2021/06/29 10:32:03;;;;;;;5.68;5.18;;;26.30;99.90;;;;;;5013293;28;20545;-85
2021/06/29 10:34:29;;;;;;;7.13;5.70;;;26.30;99.90;;;;;;5015399;28;20163;-88
2021/06/29 10:36:57;;;;;;;5.05;4.53;;;26.50;99.90;;;;;;5028165;28;20648;-89
2021/06/29 10:39:26;;;;;;;6.50;5.00;;;26.90;99.90;;;;;;5015207;28;20196;-89
2021/06/29 10:42:00;;;;;;;5.18;4.28;;;27.30;99.90;;;;;;5013359;28;20251;-88
2021/06/29 10:44:28;;;;;;;6.95;5.40;;;27.20;99.90;;;;;;5015574;28;20266;-87
2021/06/29 10:46:55;;;;;;;4.85;4.30;;;26.80;99.90;;;;;;5014976;28;20187;-86
2021/06/29 10:49:56;;;;;;;5.97;4.93;;;26.40;99.90;;;;;;5031756;28;20180;-85
2021/06/29 10:52:30;;;;;;;4.68;4.05;;;26.30;99.90;;;;;;5011419;28;20223;-85
2021/06/29 10:55:02;;;;;;;8.55;4.90;;;25.90;99.90;;;;;;5014275;28;20183;-84
2021/06/29 10:57:44;;;;;;;6.35;4.88;;;25.50;99.90;;;;;;5013129;28;20184;-83
2021/06/29 11:00:16;;;;;;;5.25;4.30;;;25.30;99.90;;;;;;5011879;28;20200;-84
2021/06/29 11:02:42;;;;;;;9.27;4.82;;;25.40;99.90;;;;;;5013682;28;20271;-84
2021/06/29 11:05:10;;;;;;;7.13;5.63;;;25.60;99.90;;;;;;5014043;28;20219;-83
2021/06/29 11:07:41;;;;;;;6.13;5.18;;;25.70;99.90;;;;;;5013134;28;20235;-83
2021/06/29 11:10:11;;;;;;;7.20;4.45;;;25.50;99.90;;;;;;5029145;28;20188;-83
2021/06/29 11:12:50;;;;;;;9.05;4.53;;;25.50;99.90;;;;;;5013295;28;20551;-82
2021/06/29 11:15:16;;;;;;;4.70;3.60;;;25.70;99.90;;;;;;5030116;28;20212;-83
2021/06/29 11:17:49;;;;;;;8.52;5.25;;;26.00;99.90;;;;;;5027251;28;20180;-85
2021/06/29 11:20:36;;;;;;;9.35;4.68;;;26.40;99.90;;;;;;5031132;28;20219;-83
2021/06/29 11:23:05;;;;;;;6.13;4.93;;;26.70;99.90;;;;;;5011897;28;20751;-84
2021/06/29 11:25:53;;;;;;;5.25;4.53;;;27.10;99.90;;;;;;5010413;28;20266;-84
2021/06/29 11:28:40;;;;;;;8.18;4.35;;;27.30;99.90;;;;;;5012515;28;20786;-82
2021/06/29 11:31:09;;;;;;;8.90;5.63;;;27.60;99.90;;;;;;5011925;28;20171;-83
2021/06/29 11:33:53;;;;;;;6.95;4.65;;;27.70;99.90;;;;;;5027216;28;20656;-84
2021/06/29 11:36:25;;;;;;;5.25;4.65;;;27.40;99.90;;;;;;5028230;28;20627;-84
2021/06/29 11:38:54;;;;;;;10.40;4.45;;;27.20;99.90;;;;;;5029373;28;20984;-83
2021/06/29 11:41:36;;;;;;;12.38;5.53;;;27.10;99.90;;;;;;5014008;28;20187;-86
2021/06/29 11:44:07;;;;;;;11.18;6.03;;;26.80;99.90;;;;;;5029170;28;20192;-84
2021/06/29 11:46:55;;;;;;;19.60;5.85;;;26.50;99.90;;;;;;5015844;28;20184;-84
2021/06/29 11:49:39;;;;;;;11.70;6.32;;;26.50;99.90;;;;;;5023897;28;20214;-88
2021/06/29 11:52:13;;;;;;;6.18;5.22;;;26.50;99.90;;;;;;5016400;28;20176;-87
2021/06/29 11:54:53;;;;;;;10.73;4.68;;;26.70;99.90;;;;;;5013773;28;20175;-88
2021/06/29 11:57:21;;;;;;;11.02;6.03;;;26.70;99.90;;;;;;5014437;28;20176;-86
2021/06/29 11:59:49;;;;;;;6.88;4.50;;;26.70;99.90;;;;;;5007809;28;20314;-87
2021/06/29 12:02:24;;;;;;;5.88;4.60;;;26.60;99.90;;;;;;5008245;28;20185;-85
2021/06/29 12:05:00;;;;;;;14.65;5.85;;;26.50;99.90;;;;;;5009776;28;20214;-83
2021/06/29 12:07:32;;;;;;;8.90;5.25;;;26.60;99.90;;;;;;5011984;28;20226;-83
2021/06/29 12:09:58;;;;;;;9.32;6.90;;;26.40;99.90;;;;;;5010570;28;20763;-84
2021/06/29 12:12:28;;;;;;;5.32;4.53;;;26.30;99.90;;;;;;5010094;28;20264;-85
2021/06/29 12:15:13;;;;;;;10.73;6.13;;;26.30;99.90;;;;;;5009847;28;20169;-83
2021/06/29 12:17:48;;;;;;;18.58;8.13;;;26.40;99.90;;;;;;5009881;28;20651;-83
2021/06/29 12:20:15;;;;;;;15.80;8.85;;;26.60;99.90;;;;;;5026026;28;20239;-83
2021/06/29 12:22:43;;;;;;;10.70;8.43;;;26.10;99.90;;;;;;5010093;28;20204;-84
2021/06/29 12:25:15;;;;;;;20.55;9.65;;;26.10;99.90;;;;;;5010061;28;20179;-83
2021/06/29 12:27:56;;;;;;;21.00;7.80;;;26.20;99.90;;;;;;5012021;28;20243;-84
2021/06/29 12:30:37;;;;;;;13.32;8.93;;;26.30;99.90;;;;;;5015024;28;20175;-83
2021/06/29 12:33:17;;;;;;;28.92;9.90;;;26.30;99.90;;;;;;5013142;28;20185;-83
2021/06/29 12:35:54;;;;;;;15.40;8.40;;;26.30;99.90;;;;;;5013945;28;20566;-83
2021/06/29 12:38:25;;;;;;;15.02;8.77;;;26.40;99.90;;;;;;5013931;28;20164;-83
2021/06/29 12:40:54;;;;;;;11.95;8.75;;;26.50;99.90;;;;;;5014427;28;20258;-84
2021/06/29 12:43:34;;;;;;;10.55;7.93;;;26.30;99.90;;;;;;5014492;28;20527;-83
2021/06/29 12:46:18;;;;;;;9.68;7.78;;;26.20;99.90;;;;;;5016744;28;20565;-84
2021/06/29 12:49:05;;;;;;;15.02;9.40;;;26.20;99.90;;;;;;5015907;28;20533;-86
2021/06/29 12:51:34;;;;;;;10.30;8.93;;;26.10;99.90;;;;;;5016964;28;20183;-87
2021/06/29 12:54:02;;;;;;;8.55;7.70;;;26.10;99.90;;;;;;5016742;28;20192;-87
2021/06/29 12:56:34;;;;;;;12.07;8.25;;;25.70;99.90;;;;;;5015195;28;20169;-85